sensor_id;sensor_type;location;lat;lon;timestamp;P1;durP1;ratioP1;P2;durP2;ratioP2
60430;SDS011;46285;45.122;20.726;2024-01-30T00:03:31;101.88;;;56.25;;
60430;SDS011;46285;45.122;20.726;2024-01-30T00:13:34;140.50;;;74.53;;
60430;SDS011;46285;45.122;20.726;2024-01-30T00:23:36;215.52;;;108.95;;
60430;SDS011;46285;45.122;20.726;2024-01-30T00:33:41;125.70;;;67.38;;
60430;SDS011;46285;45.122;20.726;2024-01-30T00:43:43;76.33;;;43.60;;
60430;SDS011;46285;45.122;20.726;2024-01-30T00:53:45;75.95;;;42.05;;
60430;SDS011;46285;45.122;20.726;2024-01-30T01:03:47;79.57;;;39.15;;
60430;SDS011;46285;45.122;20.726;2024-01-30T01:13:49;50.30;;;27.17;;
60430;SDS011;46285;45.122;20.726;2024-01-30T01:23:51;46.15;;;25.70;;
60430;SDS011;46285;45.122;20.726;2024-01-30T01:33:53;45.78;;;24.30;;
60430;SDS011;46285;45.122;20.726;2024-01-30T01:43:55;40.00;;;23.17;;
60430;SDS011;46285;45.122;20.726;2024-01-30T01:53:57;32.67;;;19.45;;
60430;SDS011;46285;45.122;20.726;2024-01-30T02:04:01;43.75;;;20.90;;
60430;SDS011;46285;45.122;20.726;2024-01-30T02:14:03;33.30;;;18.48;;
60430;SDS011;46285;45.122;20.726;2024-01-30T02:24:05;26.30;;;17.10;;
60430;SDS011;46285;45.122;20.726;2024-01-30T02:34:07;26.65;;;16.35;;
60430;SDS011;46285;45.122;20.726;2024-01-30T02:44:09;31.00;;;16.60;;
60430;SDS011;46285;45.122;20.726;2024-01-30T02:54:12;25.73;;;16.52;;
60430;SDS011;46285;45.122;20.726;2024-01-30T03:04:13;24.20;;;15.88;;
60430;SDS011;46285;45.122;20.726;2024-01-30T03:14:15;24.88;;;15.63;;
60430;SDS011;46285;45.122;20.726;2024-01-30T03:24:17;25.65;;;14.80;;
60430;SDS011;46285;45.122;20.726;2024-01-30T03:34:19;24.33;;;14.15;;
60430;SDS011;46285;45.122;20.726;2024-01-30T03:44:21;25.67;;;15.20;;
60430;SDS011;46285;45.122;20.726;2024-01-30T03:54:23;26.35;;;14.60;;
60430;SDS011;46285;45.122;20.726;2024-01-30T04:04:25;25.55;;;15.57;;
60430;SDS011;46285;45.122;20.726;2024-01-30T04:14:27;24.67;;;13.18;;
60430;SDS011;46285;45.122;20.726;2024-01-30T04:24:29;26.27;;;16.65;;
60430;SDS011;46285;45.122;20.726;2024-01-30T04:34:32;30.40;;;16.73;;
60430;SDS011;46285;45.122;20.726;2024-01-30T04:44:34;25.00;;;13.90;;
60430;SDS011;46285;45.122;20.726;2024-01-30T04:54:36;26.27;;;15.52;;
60430;SDS011;46285;45.122;20.726;2024-01-30T05:04:38;24.85;;;15.30;;
60430;SDS011;46285;45.122;20.726;2024-01-30T05:14:40;35.28;;;20.38;;
60430;SDS011;46285;45.122;20.726;2024-01-30T05:24:42;31.48;;;18.73;;
60430;SDS011;46285;45.122;20.726;2024-01-30T05:34:44;35.08;;;19.00;;
60430;SDS011;46285;45.122;20.726;2024-01-30T05:44:45;31.10;;;16.20;;
60430;SDS011;46285;45.122;20.726;2024-01-30T05:54:47;27.83;;;17.42;;
60430;SDS011;46285;45.122;20.726;2024-01-30T06:04:49;34.50;;;19.20;;
60430;SDS011;46285;45.122;20.726;2024-01-30T06:14:51;37.08;;;22.30;;
60430;SDS011;46285;45.122;20.726;2024-01-30T06:24:55;39.20;;;23.30;;
60430;SDS011;46285;45.122;20.726;2024-01-30T06:34:57;42.15;;;23.10;;
60430;SDS011;46285;45.122;20.726;2024-01-30T06:44:59;42.90;;;24.52;;
60430;SDS011;46285;45.122;20.726;2024-01-30T06:55:01;51.20;;;29.33;;
60430;SDS011;46285;45.122;20.726;2024-01-30T07:05:04;76.43;;;41.10;;
60430;SDS011;46285;45.122;20.726;2024-01-30T07:15:05;125.55;;;53.90;;
60430;SDS011;46285;45.122;20.726;2024-01-30T07:25:11;92.03;;;45.47;;
60430;SDS011;46285;45.122;20.726;2024-01-30T07:35:13;58.60;;;32.45;;
60430;SDS011;46285;45.122;20.726;2024-01-30T07:45:15;43.75;;;26.67;;
60430;SDS011;46285;45.122;20.726;2024-01-30T07:55:17;38.33;;;22.63;;
60430;SDS011;46285;45.122;20.726;2024-01-30T08:05:21;52.92;;;31.05;;
60430;SDS011;46285;45.122;20.726;2024-01-30T08:15:25;36.27;;;20.53;;
60430;SDS011;46285;45.122;20.726;2024-01-30T08:25:27;29.02;;;16.80;;
60430;SDS011;46285;45.122;20.726;2024-01-30T08:35:29;24.35;;;15.48;;
60430;SDS011;46285;45.122;20.726;2024-01-30T08:45:34;24.63;;;15.20;;
60430;SDS011;46285;45.122;20.726;2024-01-30T08:55:36;27.55;;;17.08;;
60430;SDS011;46285;45.122;20.726;2024-01-30T09:05:38;23.40;;;14.93;;
60430;SDS011;46285;45.122;20.726;2024-01-30T09:15:40;23.92;;;13.02;;
60430;SDS011;46285;45.122;20.726;2024-01-30T09:25:42;21.60;;;13.55;;
60430;SDS011;46285;45.122;20.726;2024-01-30T09:35:44;21.88;;;12.50;;
60430;SDS011;46285;45.122;20.726;2024-01-30T09:45:46;29.48;;;12.18;;
60430;SDS011;46285;45.122;20.726;2024-01-30T09:55:50;18.73;;;11.18;;
60430;SDS011;46285;45.122;20.726;2024-01-30T10:05:52;17.63;;;10.75;;
60430;SDS011;46285;45.122;20.726;2024-01-30T10:15:55;18.98;;;11.90;;
60430;SDS011;46285;45.122;20.726;2024-01-30T10:25:59;20.35;;;12.10;;
60430;SDS011;46285;45.122;20.726;2024-01-30T10:36:02;21.80;;;11.90;;
60430;SDS011;46285;45.122;20.726;2024-01-30T10:46:17;16.55;;;9.50;;
60430;SDS011;46285;45.122;20.726;2024-01-30T10:56:28;18.65;;;9.70;;
60430;SDS011;46285;45.122;20.726;2024-01-30T11:06:31;15.82;;;8.43;;
60430;SDS011;46285;45.122;20.726;2024-01-30T11:16:33;23.38;;;13.68;;
60430;SDS011;46285;45.122;20.726;2024-01-30T11:26:35;89.28;;;44.05;;
60430;SDS011;46285;45.122;20.726;2024-01-30T11:36:37;17.73;;;10.98;;
60430;SDS011;46285;45.122;20.726;2024-01-30T11:46:40;26.58;;;18.35;;
60430;SDS011;46285;45.122;20.726;2024-01-30T11:56:42;26.25;;;15.77;;
60430;SDS011;46285;45.122;20.726;2024-01-30T12:06:44;26.77;;;17.02;;
60430;SDS011;46285;45.122;20.726;2024-01-30T12:16:49;30.88;;;15.88;;
60430;SDS011;46285;45.122;20.726;2024-01-30T12:26:59;27.85;;;16.20;;
60430;SDS011;46285;45.122;20.726;2024-01-30T12:37:01;31.17;;;18.10;;
60430;SDS011;46285;45.122;20.726;2024-01-30T12:47:03;18.65;;;10.63;;
60430;SDS011;46285;45.122;20.726;2024-01-30T12:57:05;17.60;;;11.57;;
60430;SDS011;46285;45.122;20.726;2024-01-30T13:07:07;26.67;;;9.57;;
60430;SDS011;46285;45.122;20.726;2024-01-30T13:17:11;23.30;;;14.05;;
60430;SDS011;46285;45.122;20.726;2024-01-30T13:27:14;15.60;;;9.40;;
60430;SDS011;46285;45.122;20.726;2024-01-30T13:37:16;17.92;;;11.25;;
60430;SDS011;46285;45.122;20.726;2024-01-30T13:47:22;31.92;;;17.77;;
60430;SDS011;46285;45.122;20.726;2024-01-30T13:57:25;22.60;;;13.50;;
60430;SDS011;46285;45.122;20.726;2024-01-30T14:07:27;24.90;;;17.58;;
60430;SDS011;46285;45.122;20.726;2024-01-30T14:17:29;22.80;;;13.75;;
60430;SDS011;46285;45.122;20.726;2024-01-30T14:27:32;12.88;;;7.85;;
60430;SDS011;46285;45.122;20.726;2024-01-30T14:37:34;46.20;;;26.00;;
60430;SDS011;46285;45.122;20.726;2024-01-30T14:47:36;19.27;;;10.88;;
60430;SDS011;46285;45.122;20.726;2024-01-30T14:57:39;23.00;;;12.73;;
60430;SDS011;46285;45.122;20.726;2024-01-30T15:07:45;26.20;;;14.50;;
60430;SDS011;46285;45.122;20.726;2024-01-30T15:17:47;21.92;;;14.18;;
60430;SDS011;46285;45.122;20.726;2024-01-30T15:27:49;30.77;;;18.23;;
60430;SDS011;46285;45.122;20.726;2024-01-30T15:37:51;77.50;;;45.90;;
60430;SDS011;46285;45.122;20.726;2024-01-30T15:47:53;238.00;;;123.18;;
60430;SDS011;46285;45.122;20.726;2024-01-30T15:57:55;247.98;;;130.57;;
60430;SDS011;46285;45.122;20.726;2024-01-30T16:07:57;398.73;;;213.68;;
60430;SDS011;46285;45.122;20.726;2024-01-30T16:17:59;290.27;;;156.95;;
60430;SDS011;46285;45.122;20.726;2024-01-30T16:28:02;243.15;;;133.60;;
60430;SDS011;46285;45.122;20.726;2024-01-30T16:38:04;169.38;;;99.60;;
60430;SDS011;46285;45.122;20.726;2024-01-30T16:48:07;180.30;;;108.15;;
60430;SDS011;46285;45.122;20.726;2024-01-30T16:58:11;170.00;;;99.00;;
60430;SDS011;46285;45.122;20.726;2024-01-30T17:08:13;132.80;;;79.88;;
60430;SDS011;46285;45.122;20.726;2024-01-30T17:18:22;168.52;;;107.95;;
60430;SDS011;46285;45.122;20.726;2024-01-30T17:28:24;285.08;;;170.48;;
60430;SDS011;46285;45.122;20.726;2024-01-30T17:38:27;408.02;;;201.68;;
60430;SDS011;46285;45.122;20.726;2024-01-30T17:48:30;313.58;;;167.38;;
60430;SDS011;46285;45.122;20.726;2024-01-30T17:58:33;282.63;;;170.70;;
60430;SDS011;46285;45.122;20.726;2024-01-30T18:08:35;76.57;;;52.30;;
60430;SDS011;46285;45.122;20.726;2024-01-30T18:18:38;206.57;;;112.78;;
60430;SDS011;46285;45.122;20.726;2024-01-30T18:28:40;310.38;;;153.13;;
60430;SDS011;46285;45.122;20.726;2024-01-30T18:38:44;303.95;;;145.65;;
60430;SDS011;46285;45.122;20.726;2024-01-30T18:48:54;195.80;;;92.55;;
60430;SDS011;46285;45.122;20.726;2024-01-30T18:58:56;120.60;;;61.60;;
60430;SDS011;46285;45.122;20.726;2024-01-30T19:08:59;100.03;;;53.95;;
60430;SDS011;46285;45.122;20.726;2024-01-30T19:19:01;204.13;;;98.18;;
60430;SDS011;46285;45.122;20.726;2024-01-30T19:29:11;165.75;;;83.60;;
60430;SDS011;46285;45.122;20.726;2024-01-30T19:39:16;149.90;;;81.82;;
60430;SDS011;46285;45.122;20.726;2024-01-30T19:49:39;147.07;;;88.10;;
60430;SDS011;46285;45.122;20.726;2024-01-30T19:59:43;97.70;;;59.13;;
60430;SDS011;46285;45.122;20.726;2024-01-30T20:09:45;135.18;;;77.13;;
60430;SDS011;46285;45.122;20.726;2024-01-30T20:19:50;465.08;;;249.30;;
60430;SDS011;46285;45.122;20.726;2024-01-30T20:29:55;155.32;;;96.38;;
60430;SDS011;46285;45.122;20.726;2024-01-30T20:39:57;91.13;;;55.88;;
60430;SDS011;46285;45.122;20.726;2024-01-30T20:50:02;132.43;;;71.32;;
60430;SDS011;46285;45.122;20.726;2024-01-30T21:10:10;72.78;;;39.83;;
60430;SDS011;46285;45.122;20.726;2024-01-30T21:20:13;72.57;;;43.40;;
60430;SDS011;46285;45.122;20.726;2024-01-30T21:30:16;217.13;;;120.65;;
60430;SDS011;46285;45.122;20.726;2024-01-30T21:40:20;130.55;;;77.55;;
60430;SDS011;46285;45.122;20.726;2024-01-30T21:50:22;59.97;;;38.60;;
60430;SDS011;46285;45.122;20.726;2024-01-30T22:00:24;144.15;;;81.97;;
60430;SDS011;46285;45.122;20.726;2024-01-30T22:10:27;75.05;;;49.15;;
60430;SDS011;46285;45.122;20.726;2024-01-30T22:20:29;66.60;;;38.28;;
60430;SDS011;46285;45.122;20.726;2024-01-30T22:30:34;55.00;;;33.60;;
60430;SDS011;46285;45.122;20.726;2024-01-30T22:40:38;57.25;;;37.25;;
60430;SDS011;46285;45.122;20.726;2024-01-30T22:50:40;73.20;;;40.28;;
60430;SDS011;46285;45.122;20.726;2024-01-30T23:00:42;172.75;;;87.68;;
60430;SDS011;46285;45.122;20.726;2024-01-30T23:10:43;71.38;;;41.17;;
60430;SDS011;46285;45.122;20.726;2024-01-30T23:20:45;188.82;;;99.93;;
60430;SDS011;46285;45.122;20.726;2024-01-30T23:30:47;127.32;;;64.07;;
60430;SDS011;46285;45.122;20.726;2024-01-30T23:40:49;47.05;;;28.30;;
60430;SDS011;46285;45.122;20.726;2024-01-30T23:50:52;59.97;;;34.78;;
